Time;durP1;ratioP1;P1;durP2;ratioP2;P2;SDS_P1;SDS_P2;PMS_P1;PMS_P2;Temp;Humidity;BMP_temperature;BMP_pressure;BME280_temperature;BME280_humidity;BME280_pressure;Samples;Min_cycle;Max_cycle;Signal;HPM_P1;HPM_P2
2021/08/12 00:01:24;;;;;;;17.17;10.35;;;;;;;21.37;85.78;100658.74;1877805;76;21137;-60
2021/08/12 00:03:53;;;;;;;20.80;9.93;;;;;;;21.35;85.83;100655.35;1877766;76;21058;-60
2021/08/12 00:06:21;;;;;;;20.57;9.23;;;;;;;21.33;85.88;100648.78;1877780;76;21055;-60
2021/08/12 00:08:50;;;;;;;20.15;10.53;;;;;;;21.29;85.94;100655.89;1877760;76;21034;-60
2021/08/12 00:11:19;;;;;;;16.55;9.58;;;;;;;21.26;86.02;100652.12;1878028;76;21034;-60
2021/08/12 00:13:48;;;;;;;16.23;9.20;;;;;;;21.24;86.08;100654.09;1878038;76;21167;-60
2021/08/12 00:16:17;;;;;;;17.87;9.35;;;;;;;21.23;86.15;100654.59;1877928;76;21030;-60
2021/08/12 00:18:48;;;;;;;20.95;10.45;;;;;;;21.24;86.24;100656.77;1877918;76;21038;-60
2021/08/12 00:21:15;;;;;;;19.92;10.32;;;;;;;21.23;86.30;100647.02;1877841;76;21112;-60
2021/08/12 00:23:45;;;;;;;20.35;10.30;;;;;;;21.21;86.36;100649.36;1877862;76;21058;-60
2021/08/12 00:26:14;;;;;;;22.98;9.70;;;;;;;21.19;86.42;100647.30;1884357;75;21606;-60
2021/08/12 00:28:42;;;;;;;17.07;10.03;;;;;;;21.18;86.42;100649.61;1888039;76;21058;-60
2021/08/12 00:31:11;;;;;;;19.45;10.15;;;;;;;21.15;86.41;100649.86;1888045;76;21128;-60
2021/08/12 00:33:41;;;;;;;22.35;10.05;;;;;;;21.11;86.50;100647.09;1887945;76;21066;-60
2021/08/12 00:36:10;;;;;;;22.73;10.53;;;;;;;21.10;86.61;100649.42;1888140;76;21003;-60
2021/08/12 00:38:39;;;;;;;22.13;11.35;;;;;;;21.07;86.74;100645.66;1888177;76;21109;-60
2021/08/12 00:41:07;;;;;;;22.35;10.68;;;;;;;21.06;86.86;100645.28;1888034;76;21042;-60
2021/08/12 00:43:37;;;;;;;19.92;10.08;;;;;;;21.04;86.96;100635.20;1888073;76;21116;-60
2021/08/12 00:46:07;;;;;;;25.70;10.65;;;;;;;21.02;87.07;100637.16;1888020;75;21160;-61
2021/08/12 00:48:36;;;;;;;21.07;11.65;;;;;;;20.99;87.17;100630.25;1888145;76;21437;-60
2021/08/12 00:51:05;;;;;;;23.20;13.35;;;;;;;20.98;87.33;100630.37;1888116;76;21042;-60
2021/08/12 00:53:35;;;;;;;28.12;12.50;;;;;;;20.96;87.92;100633.67;1888088;76;21046;-60
2021/08/12 00:56:08;;;;;;;29.50;13.32;;;;;;;20.97;88.08;100629.54;1888169;76;21058;-60
2021/08/12 00:58:37;;;;;;;29.32;13.78;;;;;;;20.95;88.06;100618.12;1888083;76;21042;-61
2021/08/12 01:01:05;;;;;;;26.05;13.53;;;;;;;20.96;88.08;100617.13;1887990;76;21114;-60
2021/08/12 01:03:35;;;;;;;32.45;15.38;;;;;;;20.93;88.02;100616.03;1888135;76;21085;-60
2021/08/12 01:06:05;;;;;;;36.28;16.05;;;;;;;20.92;88.12;100621.05;1888060;76;21132;-60
2021/08/12 01:08:37;;;;;;;29.23;15.05;;;;;;;20.91;88.19;100628.70;1887945;76;21132;-60
2021/08/12 01:11:18;;;;;;;35.50;14.95;;;;;;;20.92;88.26;100625.55;1887983;76;21042;-61
2021/08/12 01:14:05;;;;;;;29.10;15.03;;;;;;;20.91;88.32;100623.84;1889830;75;21032;-60
2021/08/12 01:16:36;;;;;;;34.55;15.95;;;;;;;20.91;88.39;100626.52;1888341;75;21489;-60
2021/08/12 01:19:26;;;;;;;29.72;15.28;;;;;;;20.89;88.42;100623.13;1888131;75;21535;-60
2021/08/12 01:22:00;;;;;;;26.20;14.58;;;;;;;20.89;88.46;100627.14;1889885;75;21500;-60
2021/08/12 01:24:35;;;;;;;34.58;16.23;;;;;;;20.86;88.46;100635.42;1912239;75;21167;-60
2021/08/12 01:27:07;;;;;;;26.25;15.43;;;;;;;20.83;88.53;100642.73;1900911;75;21069;-60
2021/08/12 01:29:59;;;;;;;31.53;16.77;;;;;;;20.82;88.64;100633.48;1906574;74;21098;-60
2021/08/12 01:32:30;;;;;;;31.12;16.15;;;;;;;20.82;88.72;100643.72;1906114;75;21061;-60
2021/08/12 01:35:09;;;;;;;31.52;15.93;;;;;;;20.81;88.74;100649.20;1906159;74;21090;-60
2021/08/12 01:37:51;;;;;;;28.27;15.83;;;;;;;20.80;88.77;100656.39;1906102;74;21366;-60
2021/08/12 01:40:22;;;;;;;31.57;17.35;;;;;;;20.77;88.81;100663.32;1906565;74;21100;-61
2021/08/12 01:42:53;;;;;;;28.47;16.10;;;;;;;20.76;88.91;100676.33;1906175;75;21099;-60
2021/08/12 01:45:22;;;;;;;27.90;15.30;;;;;;;20.77;88.97;100675.36;1906127;75;21440;-60
2021/08/12 01:47:52;;;;;;;25.88;15.18;;;;;;;20.78;89.20;100674.86;1906241;75;21511;-60
2021/08/12 01:50:21;;;;;;;27.05;14.13;;;;;;;20.78;89.19;100676.20;1906125;75;21167;-60
2021/08/12 01:52:53;;;;;;;26.37;14.40;;;;;;;20.77;89.25;100683.39;1906088;75;21117;-61
2021/08/12 01:55:31;;;;;;;39.18;22.37;;;;;;;20.77;89.24;100684.73;1906225;74;21207;-60
2021/08/12 01:58:01;;;;;;;47.03;25.15;;;;;;;20.79;89.21;100681.93;1906110;75;21583;-60
2021/08/12 02:00:32;;;;;;;40.85;23.67;;;;;;;20.80;89.24;100680.47;1906177;75;21072;-60
2021/08/12 02:03:02;;;;;;;33.20;19.55;;;;;;;20.82;89.24;100686.54;1906537;74;21033;-60
2021/08/12 02:05:32;;;;;;;24.15;13.50;;;;;;;20.85;89.23;100697.97;1906128;75;21505;-60
2021/08/12 02:08:02;;;;;;;25.12;14.95;;;;;;;20.87;89.22;100706.70;1906059;75;21066;-60
2021/08/12 02:10:30;;;;;;;22.82;13.05;;;;;;;20.89;89.21;100717.63;1906166;75;21069;-60
2021/08/12 02:13:01;;;;;;;22.48;13.03;;;;;;;20.90;89.19;100718.01;1906092;75;21176;-60
2021/08/12 02:15:30;;;;;;;26.12;13.10;;;;;;;20.89;89.17;100720.31;1906136;75;21124;-60
2021/08/12 02:17:59;;;;;;;27.65;15.35;;;;;;;20.91;89.12;100708.15;1905992;75;21061;-61
2021/08/12 02:20:28;;;;;;;30.43;16.48;;;;;;;20.92;89.07;100707.19;1906150;75;21464;-60
2021/08/12 02:23:13;;;;;;;28.52;16.77;;;;;;;20.93;89.05;100708.36;1906076;75;20997;-60
2021/08/12 02:26:06;;;;;;;30.80;15.83;;;;;;;20.95;89.03;100704.23;1906984;74;21097;-60
2021/08/12 02:28:37;;;;;;;30.62;17.40;;;;;;;20.97;88.98;100703.61;1906726;74;21654;-60
2021/08/12 02:31:06;;;;;;;33.00;17.45;;;;;;;20.98;88.97;100695.45;1906183;75;21448;-60
2021/08/12 02:33:37;;;;;;;31.82;15.50;;;;;;;21.00;88.97;100698.02;1906249;75;21065;-60
2021/08/12 02:36:08;;;;;;;33.55;16.07;;;;;;;21.00;88.97;100697.52;1906210;75;21042;-60
2021/08/12 02:38:40;;;;;;;38.42;15.90;;;;;;;21.01;88.97;100693.03;1906157;75;21017;-60
2021/08/12 02:41:12;;;;;;;28.77;14.75;;;;;;;21.00;89.08;100692.66;1906299;75;21081;-60
2021/08/12 02:43:42;;;;;;;36.15;15.58;;;;;;;20.99;89.17;100694.99;1906269;75;21080;-60
2021/08/12 02:46:12;;;;;;;35.95;15.83;;;;;;;21.00;89.16;100696.67;1906211;75;21115;-60
2021/08/12 02:48:42;;;;;;;32.30;15.45;;;;;;;21.01;89.12;100689.02;1906044;75;21065;-60
2021/08/12 02:51:13;;;;;;;30.43;15.15;;;;;;;21.02;89.13;100694.71;1906177;75;21017;-61
2021/08/12 02:53:42;;;;;;;33.53;14.78;;;;;;;21.05;89.12;100705.17;1905590;75;21141;-60
2021/08/12 02:56:13;;;;;;;31.30;13.75;;;;;;;21.08;89.04;100700.91;1905582;75;21521;-60
2021/08/12 02:58:44;;;;;;;29.23;14.40;;;;;;;21.11;88.97;100699.30;1905718;75;21061;-70
2021/08/12 03:01:14;;;;;;;29.48;13.98;;;;;;;21.13;88.88;100701.34;1897512;74;21075;-70
2021/08/12 03:03:46;;;;;;;34.40;15.28;;;;;;;21.18;88.85;100692.95;1893518;74;21057;-68
2021/08/12 03:06:18;;;;;;;33.55;15.48;;;;;;;21.22;88.82;100690.36;1905675;75;21057;-65
2021/08/12 03:08:49;;;;;;;29.48;15.43;;;;;;;21.25;88.75;100683.41;1906032;74;21629;-67
2021/08/12 03:11:20;;;;;;;32.28;17.57;;;;;;;21.30;88.74;100691.05;1905768;75;21030;-70
2021/08/12 03:13:51;;;;;;;32.00;16.10;;;;;;;21.33;88.74;100690.80;1906120;75;21017;-62
2021/08/12 03:16:20;;;;;;;31.52;15.55;;;;;;;21.35;88.68;100692.84;1903660;75;21187;-67
2021/08/12 03:18:49;;;;;;;33.48;15.25;;;;;;;21.38;88.56;100691.25;1906109;75;21037;-64
2021/08/12 03:21:19;;;;;;;34.05;15.90;;;;;;;21.43;88.48;100701.55;1904885;75;21044;-61
2021/08/12 03:23:48;;;;;;;33.20;14.85;;;;;;;21.51;88.44;100712.52;1902212;75;21424;-59
2021/08/12 03:26:18;;;;;;;28.87;14.50;;;;;;;21.56;88.40;100711.14;1902252;75;21029;-59
2021/08/12 03:28:47;;;;;;;30.27;15.25;;;;;;;21.61;88.33;100713.41;1888985;75;21077;-59
2021/08/12 03:31:16;;;;;;;24.12;14.13;;;;;;;21.65;88.18;100712.66;1886537;76;21202;-59
2021/08/12 03:33:45;;;;;;;32.73;16.30;;;;;;;21.67;87.98;100722.74;1886528;76;21536;-59
2021/08/12 03:36:14;;;;;;;27.37;15.70;;;;;;;21.71;87.79;100726.88;1886563;76;21151;-59
2021/08/12 03:38:44;;;;;;;35.85;18.00;;;;;;;21.72;87.72;100723.20;1886459;76;21069;-59
2021/08/12 03:41:13;;;;;;;28.67;16.77;;;;;;;21.77;87.61;100712.94;1886348;76;21077;-61
2021/08/12 03:43:42;;;;;;;27.42;15.95;;;;;;;21.85;87.51;100716.29;1886405;75;21563;-59
2021/08/12 03:46:11;;;;;;;27.77;16.00;;;;;;;21.93;87.41;100715.11;1886579;76;21109;-60
2021/08/12 03:48:40;;;;;;;29.10;15.43;;;;;;;22.00;87.30;100714.94;1886505;76;21107;-59
2021/08/12 03:51:09;;;;;;;25.97;14.98;;;;;;;22.11;87.21;100709.97;1886554;76;21147;-59
2021/08/12 03:53:38;;;;;;;27.58;14.93;;;;;;;22.23;87.06;100710.73;1886689;76;21561;-59
2021/08/12 03:56:07;;;;;;;22.98;13.78;;;;;;;22.33;86.92;100716.50;1854546;76;21500;-59
2021/08/12 03:58:37;;;;;;;21.17;13.32;;;;;;;22.50;86.71;100710.11;1886552;76;21102;-60
2021/08/12 04:01:08;;;;;;;26.55;12.53;;;;;;;22.77;86.51;100713.48;1886568;76;21042;-59
2021/08/12 04:03:37;;;;;;;18.52;11.83;;;;;;;23.09;86.28;100705.67;1886569;76;21171;-59
2021/08/12 04:06:06;;;;;;;23.32;12.65;;;;;;;23.38;85.94;100711.02;1886563;76;21590;-60
2021/08/12 04:08:35;;;;;;;19.87;12.05;;;;;;;23.62;85.42;100711.05;1886394;76;21049;-59
2021/08/12 04:11:04;;;;;;;20.82;12.00;;;;;;;23.88;84.91;100709.94;1886567;76;21539;-59
2021/08/12 04:13:33;;;;;;;22.35;13.65;;;;;;;24.09;84.33;100710.56;1886528;76;21110;-59
2021/08/12 04:16:02;;;;;;;24.77;13.45;;;;;;;24.15;83.74;100708.28;1886552;76;21155;-59
2021/08/12 04:18:31;;;;;;;20.82;12.98;;;;;;;24.17;83.21;100716.55;1886643;75;21140;-59
2021/08/12 04:21:00;;;;;;;23.65;12.82;;;;;;;24.09;82.83;100717.29;1886489;76;21073;-59
2021/08/12 04:23:29;;;;;;;21.07;13.05;;;;;;;23.96;82.58;100715.92;1886541;76;21131;-59
2021/08/12 04:25:58;;;;;;;24.05;13.05;;;;;;;23.82;82.35;100719.44;1886723;76;21001;-60
2021/08/12 04:28:27;;;;;;;23.42;12.82;;;;;;;23.76;82.09;100711.09;1880808;76;21077;-59
2021/08/12 04:30:56;;;;;;;18.23;11.93;;;;;;;23.71;81.92;100706.14;1871028;77;21128;-59
2021/08/12 04:33:24;;;;;;;23.98;14.47;;;;;;;23.64;81.91;100707.72;1870807;77;21043;-60
2021/08/12 04:35:53;;;;;;;22.98;14.05;;;;;;;23.69;81.83;100708.97;1870964;77;21120;-59
2021/08/12 04:38:22;;;;;;;22.05;14.00;;;;;;;24.00;81.83;100698.01;1870944;77;21572;-59
2021/08/12 04:40:52;;;;;;;27.27;16.05;;;;;;;24.37;81.70;100708.38;1870935;76;21493;-59
2021/08/12 04:43:21;;;;;;;24.65;14.98;;;;;;;24.63;81.18;100712.56;1870962;77;21034;-59
2021/08/12 04:45:50;;;;;;;30.00;16.25;;;;;;;24.75;80.28;100718.09;1870920;77;21546;-59
2021/08/12 04:48:18;;;;;;;32.35;16.37;;;;;;;24.76;79.76;100722.96;1870877;77;21073;-60
2021/08/12 04:50:48;;;;;;;28.45;15.08;;;;;;;24.72;79.35;100732.34;1870885;76;21509;-59
2021/08/12 04:53:18;;;;;;;30.48;16.17;;;;;;;24.42;78.86;100738.35;1870743;77;21110;-59
2021/08/12 04:55:48;;;;;;;30.60;17.20;;;;;;;24.14;79.08;100741.03;1871007;77;21565;-59
2021/08/12 04:58:17;;;;;;;33.38;15.83;;;;;;;23.97;79.34;100745.86;1870921;77;21070;-59
2021/08/12 05:00:46;;;;;;;32.38;17.55;;;;;;;23.85;79.62;100742.52;1870931;77;21485;-60
2021/08/12 05:03:14;;;;;;;27.35;14.85;;;;;;;23.79;79.78;100745.73;1870938;77;21093;-59
2021/08/12 05:05:43;;;;;;;23.92;12.50;;;;;;;23.75;79.93;100739.80;1870911;77;21066;-59
2021/08/12 05:08:13;;;;;;;26.23;14.15;;;;;;;23.76;79.88;100725.37;1870905;77;21090;-59
2021/08/12 05:10:46;;;;;;;25.97;13.72;;;;;;;23.81;79.83;100725.83;1870885;77;21533;-59
2021/08/12 05:13:15;;;;;;;23.87;12.00;;;;;;;23.89;79.87;100725.92;1870915;77;21533;-59
2021/08/12 05:15:44;;;;;;;21.12;10.28;;;;;;;24.06;79.91;100735.56;1871004;77;21074;-59
2021/08/12 05:18:13;;;;;;;20.25;11.05;;;;;;;24.25;79.73;100732.80;1871171;77;21578;-59
2021/08/12 05:20:42;;;;;;;20.90;10.82;;;;;;;24.52;79.23;100729.77;1870941;77;21062;-59
2021/08/12 05:23:11;;;;;;;19.12;9.85;;;;;;;25.28;79.12;100709.64;1870903;77;21042;-59
2021/08/12 05:25:44;;;;;;;17.23;10.30;;;;;;;26.15;78.21;100697.06;1870851;77;21430;-60
2021/08/12 05:28:12;;;;;;;16.07;8.83;;;;;;;27.01;77.22;100692.88;1870844;77;21070;-59
2021/08/12 05:30:42;;;;;;;14.38;8.40;;;;;;;27.85;75.54;100686.68;1881053;76;21512;-59
2021/08/12 05:33:10;;;;;;;14.68;8.05;;;;;;;28.64;73.67;100688.05;1881403;76;21037;-59
2021/08/12 05:35:39;;;;;;;14.18;7.67;;;;;;;29.30;71.43;100687.05;1881277;76;21509;-59
2021/08/12 05:38:08;;;;;;;15.15;8.00;;;;;;;29.76;69.41;100698.30;1881168;75;21077;-60
2021/08/12 05:40:37;;;;;;;16.75;9.53;;;;;;;30.09;67.81;100703.36;1881276;76;21120;-59
2021/08/12 05:43:06;;;;;;;22.85;9.90;;;;;;;29.88;66.69;100700.89;1881383;75;21481;-59
2021/08/12 05:45:35;;;;;;;24.85;12.00;;;;;;;29.42;66.29;100697.78;1881359;76;21634;-59
2021/08/12 05:48:06;;;;;;;18.85;9.68;;;;;;;29.12;65.96;100697.34;1881260;76;21508;-60
2021/08/12 05:50:34;;;;;;;22.62;11.40;;;;;;;28.76;66.24;100696.62;1881254;76;21103;-62
2021/08/12 05:53:03;;;;;;;29.23;12.00;;;;;;;28.49;66.68;100690.66;1881232;76;21135;-59
2021/08/12 05:55:33;;;;;;;19.82;10.03;;;;;;;28.44;66.66;100691.69;1881351;76;21101;-59
2021/08/12 05:58:02;;;;;;;22.35;10.88;;;;;;;28.46;66.47;100690.51;1881399;76;21489;-60
2021/08/12 06:00:31;;;;;;;21.68;10.05;;;;;;;28.29;66.03;100695.66;1881268;76;21124;-59
2021/08/12 06:03:11;;;;;;;19.50;9.63;;;;;;;28.21;66.43;100689.78;1881257;76;21057;-59
2021/08/12 06:05:41;;;;;;;22.62;9.83;;;;;;;28.14;66.46;100685.26;1881448;76;21163;-60
2021/08/12 06:08:15;;;;;;;20.88;9.75;;;;;;;27.92;66.61;100685.00;1881257;76;21037;-59
2021/08/12 06:10:44;;;;;;;24.02;10.05;;;;;;;27.76;67.25;100678.25;1881223;76;21053;-59
2021/08/12 06:13:13;;;;;;;23.02;10.00;;;;;;;27.67;67.63;100673.41;1881287;76;21069;-59
2021/08/12 06:15:43;;;;;;;38.60;10.32;;;;;;;27.49;67.75;100671.73;1851452;76;21524;-60
2021/08/12 06:18:13;;;;;;;16.75;8.08;;;;;;;27.38;67.98;100665.86;1881470;76;21445;-59
2021/08/12 06:20:43;;;;;;;17.73;8.50;;;;;;;27.25;68.20;100664.48;1881435;76;21108;-59
2021/08/12 06:23:13;;;;;;;20.45;8.95;;;;;;;27.04;68.46;100666.37;1881249;76;21472;-59
2021/08/12 06:25:42;;;;;;;20.75;9.20;;;;;;;26.83;68.74;100670.07;1881347;76;21516;-59
2021/08/12 06:28:11;;;;;;;16.30;8.05;;;;;;;26.65;69.14;100666.16;1881190;75;21132;-59
2021/08/12 06:30:40;;;;;;;24.57;10.05;;;;;;;26.51;69.50;100665.78;1874119;76;21093;-59
2021/08/12 06:33:11;;;;;;;29.18;12.28;;;;;;;26.41;69.77;100665.58;1870883;77;21144;-59
2021/08/12 06:35:40;;;;;;;24.40;13.10;;;;;;;26.31;70.17;100674.66;1870916;77;21073;-59
2021/08/12 06:38:08;;;;;;;40.83;17.10;;;;;;;26.27;70.62;100676.52;1870936;77;21066;-59
2021/08/12 06:40:38;;;;;;;40.55;17.77;;;;;;;26.22;71.12;100680.20;1870965;77;21567;-60
2021/08/12 06:43:07;;;;;;;33.38;15.80;;;;;;;26.17;71.38;100684.25;1870897;77;21421;-59
2021/08/12 06:45:37;;;;;;;29.18;12.73;;;;;;;26.14;71.52;100688.61;1868509;76;21167;-59
2021/08/12 06:48:07;;;;;;;20.88;10.50;;;;;;;26.07;71.58;100691.61;1870897;77;21090;-59
2021/08/12 06:50:36;;;;;;;16.00;7.03;;;;;;;26.04;71.73;100695.98;1870833;77;21011;-59
2021/08/12 06:53:05;;;;;;;16.45;8.08;;;;;;;25.97;71.82;100701.19;1870904;77;21051;-59
2021/08/12 06:55:35;;;;;;;17.98;8.33;;;;;;;25.92;71.79;100704.00;1870847;76;21216;-59
2021/08/12 06:58:04;;;;;;;16.82;7.90;;;;;;;25.89;71.82;100709.70;1870921;77;21136;-60
2021/08/12 07:00:33;;;;;;;19.37;8.60;;;;;;;25.88;71.95;100713.43;1870850;77;21527;-59
2021/08/12 07:03:02;;;;;;;24.52;9.08;;;;;;;25.84;72.01;100706.64;1870925;77;21038;-59
2021/08/12 07:05:31;;;;;;;16.93;7.72;;;;;;;25.81;72.34;100703.26;1870993;77;21034;-59
2021/08/12 07:08:02;;;;;;;14.50;7.55;;;;;;;25.83;72.35;100700.92;1870781;77;21054;-59
2021/08/12 07:10:31;;;;;;;15.70;8.18;;;;;;;25.81;72.30;100703.26;1870982;77;21101;-59
2021/08/12 07:13:00;;;;;;;16.77;7.58;;;;;;;25.87;72.33;100699.08;1871036;76;21045;-59
2021/08/12 07:15:29;;;;;;;18.48;8.78;;;;;;;25.93;72.34;100702.53;1870851;77;21070;-59
2021/08/12 07:17:59;;;;;;;17.95;8.98;;;;;;;26.01;72.18;100690.92;1870849;76;21144;-59
2021/08/12 07:20:28;;;;;;;18.67;8.40;;;;;;;26.13;71.91;100696.35;1870778;77;21516;-59
2021/08/12 07:22:59;;;;;;;15.25;8.40;;;;;;;26.36;71.72;100699.31;1870834;77;21505;-60
2021/08/12 07:25:28;;;;;;;20.25;9.63;;;;;;;26.57;71.27;100692.10;1870815;77;21049;-59
2021/08/12 07:27:56;;;;;;;16.05;9.13;;;;;;;26.85;70.91;100692.35;1870858;77;21074;-59
2021/08/12 07:30:26;;;;;;;21.97;9.48;;;;;;;27.29;70.49;100684.77;1870793;76;21132;-59
2021/08/12 07:32:55;;;;;;;20.37;9.48;;;;;;;27.72;69.63;100684.03;1870835;76;21132;-59
2021/08/12 07:35:24;;;;;;;20.27;10.88;;;;;;;28.07;68.86;100685.97;1870955;77;21532;-59
2021/08/12 07:37:52;;;;;;;19.05;10.93;;;;;;;28.47;67.83;100681.86;1870859;77;21124;-59
2021/08/12 07:40:21;;;;;;;22.15;10.20;;;;;;;29.01;67.11;100682.35;1870835;77;21152;-59
2021/08/12 07:42:50;;;;;;;26.95;11.45;;;;;;;29.43;66.06;100684.53;1870967;77;21112;-59
2021/08/12 07:45:19;;;;;;;28.83;11.15;;;;;;;29.63;65.02;100692.97;1870804;77;21046;-60
2021/08/12 07:47:48;;;;;;;25.60;11.25;;;;;;;29.95;64.24;100693.66;1870825;77;21116;-59
2021/08/12 07:50:17;;;;;;;21.75;10.60;;;;;;;30.10;62.98;100695.52;1870828;77;21054;-60
2021/08/12 07:52:45;;;;;;;23.67;11.05;;;;;;;30.29;61.47;100692.75;1870822;77;21181;-59
2021/08/12 07:55:14;;;;;;;31.37;13.00;;;;;;;30.35;60.86;100693.36;1870828;77;21058;-59
2021/08/12 07:57:43;;;;;;;23.35;11.95;;;;;;;30.55;60.70;100701.22;1870849;77;21073;-59
2021/08/12 08:00:13;;;;;;;23.70;11.30;;;;;;;30.87;60.34;100694.95;1870975;77;21122;-59
2021/08/12 08:02:47;;;;;;;16.35;9.98;;;;;;;31.18;59.16;100706.88;1870893;77;21101;-59
2021/08/12 08:05:18;;;;;;;22.80;10.65;;;;;;;31.37;59.01;100714.03;1870917;77;21159;-59
2021/08/12 08:07:49;;;;;;;18.80;9.50;;;;;;;31.44;58.43;100719.00;1870495;76;21042;-59
2021/08/12 08:10:20;;;;;;;18.70;8.53;;;;;;;31.25;58.74;100721.06;1870865;77;21039;-60
2021/08/12 08:12:49;;;;;;;15.55;8.03;;;;;;;30.76;58.61;100718.05;1870889;77;21054;-59
2021/08/12 08:15:19;;;;;;;15.88;7.60;;;;;;;30.26;59.28;100730.61;1870862;77;21078;-59
2021/08/12 08:17:48;;;;;;;16.15;8.35;;;;;;;29.77;59.93;100728.47;1870973;77;21102;-59
2021/08/12 08:20:17;;;;;;;16.77;7.37;;;;;;;29.35;60.96;100733.96;1870846;77;21030;-59
2021/08/12 08:22:46;;;;;;;10.82;6.47;;;;;;;29.10;61.80;100730.05;1870992;77;21050;-60
2021/08/12 08:25:15;;;;;;;10.75;6.28;;;;;;;28.77;62.36;100726.73;1870838;77;21652;-59
2021/08/12 08:27:44;;;;;;;11.08;5.78;;;;;;;28.61;62.79;100723.12;1870909;77;21612;-59
2021/08/12 08:30:18;;;;;;;11.18;5.80;;;;;;;28.53;63.12;100720.96;1870856;77;21051;-59
2021/08/12 08:32:44;;;;;;;8.38;4.87;;;;;;;28.49;63.47;100730.75;1870368;76;21082;-59
2021/08/12 08:35:12;;;;;;;10.53;5.08;;;;;;;28.47;63.41;100723.32;1871027;77;21120;-59
2021/08/12 08:37:41;;;;;;;10.72;4.50;;;;;;;28.39;63.33;100727.44;1870844;77;21038;-59
2021/08/12 08:40:11;;;;;;;10.45;4.87;;;;;;;28.39;63.31;100728.80;1871050;77;21050;-59
2021/08/12 08:42:40;;;;;;;6.72;3.98;;;;;;;28.47;63.39;100724.67;1871068;77;21022;-60
2021/08/12 08:45:11;;;;;;;8.58;4.83;;;;;;;28.59;62.89;100724.30;1871025;77;21137;-59
2021/08/12 08:47:41;;;;;;;9.20;4.37;;;;;;;28.58;62.92;100728.05;1870952;77;21041;-59
2021/08/12 08:50:12;;;;;;;6.75;3.80;;;;;;;28.58;62.98;100732.11;1870844;77;21183;-59
2021/08/12 08:52:42;;;;;;;12.15;4.90;;;;;;;28.58;62.97;100734.30;1870868;77;21080;-59
2021/08/12 08:55:12;;;;;;;5.78;3.35;;;;;;;28.59;63.50;100733.78;1871024;77;21457;-59
2021/08/12 08:57:41;;;;;;;4.45;3.10;;;;;;;28.55;62.45;100734.68;1871086;77;21034;-59
2021/08/12 09:00:11;;;;;;;6.45;3.10;;;;;;;28.53;62.23;100733.98;1870928;77;21034;-59
2021/08/12 09:02:40;;;;;;;5.45;2.98;;;;;;;28.53;62.12;100726.38;1870935;77;21171;-59
2021/08/12 09:05:09;;;;;;;3.52;2.95;;;;;;;28.56;62.03;100725.52;1871004;77;21027;-59
2021/08/12 09:07:38;;;;;;;5.70;3.00;;;;;;;28.69;61.42;100715.45;1870917;76;21112;-59
2021/08/12 09:10:08;;;;;;;8.38;3.33;;;;;;;28.87;61.28;100703.80;1870901;77;21062;-59
2021/08/12 09:12:36;;;;;;;3.87;2.60;;;;;;;29.11;60.98;100699.74;1871011;77;21155;-59
2021/08/12 09:15:08;;;;;;;2.95;2.58;;;;;;;29.48;60.11;100692.13;1870808;77;21019;-59
2021/08/12 09:17:37;;;;;;;6.12;2.47;;;;;;;29.77;58.82;100697.27;1871043;77;21042;-59
2021/08/12 09:20:18;;;;;;;6.15;2.50;;;;;;;29.90;58.36;100701.55;1870933;76;21552;-59
2021/08/12 09:22:59;;;;;;;6.28;2.80;;;;;;;29.90;58.17;100701.55;1869907;76;21124;-59
2021/08/12 09:25:47;;;;;;;10.28;3.17;;;;;;;29.90;58.01;100712.89;1870800;77;21070;-59
2021/08/12 09:28:30;;;;;;;6.37;2.87;;;;;;;29.97;57.78;100718.77;1870336;76;21176;-59
2021/08/12 09:31:05;;;;;;;3.55;2.30;;;;;;;30.00;58.11;100721.08;1870692;76;21054;-59
2021/08/12 09:33:53;;;;;;;4.95;2.80;;;;;;;29.91;58.00;100732.23;1870804;76;21062;-59
2021/08/12 09:36:38;;;;;;;3.98;2.80;;;;;;;29.70;57.72;100732.42;1870481;76;21018;-59
2021/08/12 09:39:17;;;;;;;3.33;2.10;;;;;;;29.60;57.63;100728.64;1870790;77;21042;-59
2021/08/12 09:41:49;;;;;;;2.85;2.20;;;;;;;29.60;57.91;100727.28;1871003;77;21018;-59
2021/08/12 09:44:37;;;;;;;;;;;;;;;29.67;57.72;100717.03;1873596;77;21096;-59
2021/08/12 09:47:08;;;;;;;4.22;2.37;;;;;;;29.67;57.29;100715.67;1870925;77;20144;-59
2021/08/12 09:49:42;;;;;;;5.35;2.40;;;;;;;29.69;56.89;100714.97;1870704;77;21070;-59
2021/08/12 09:52:25;;;;;;;3.83;2.67;;;;;;;29.74;56.71;100715.30;1870873;76;21500;-59
2021/08/12 09:55:01;;;;;;;3.37;2.30;;;;;;;29.85;56.64;100728.39;1870907;76;21149;-59
2021/08/12 09:57:47;;;;;;;4.42;2.30;;;;;;;29.80;56.66;100737.61;1866203;76;21038;-59
2021/08/12 10:00:28;;;;;;;3.33;2.40;;;;;;;29.80;56.67;100745.22;1870936;77;21198;-59
2021/08/12 10:02:58;;;;;;;3.37;2.35;;;;;;;29.92;56.76;100742.91;1866086;77;21121;-59
2021/08/12 10:05:26;;;;;;;3.35;2.40;;;;;;;29.84;56.94;100745.69;1871041;77;21057;-59
2021/08/12 10:07:57;;;;;;;5.40;3.05;;;;;;;29.69;57.09;100732.61;1870985;77;21014;-59
2021/08/12 10:10:27;;;;;;;6.17;3.05;;;;;;;29.64;57.59;100733.18;1871023;77;21039;-59
2021/08/12 10:12:59;;;;;;;4.83;2.67;;;;;;;29.53;58.02;100733.11;1870969;77;21137;-59
2021/08/12 10:15:30;;;;;;;4.53;2.83;;;;;;;29.48;58.19;100732.81;1869915;76;21027;-59
2021/08/12 10:18:01;;;;;;;4.85;3.00;;;;;;;29.34;58.25;100737.69;1869821;76;21118;-59
2021/08/12 10:20:32;;;;;;;3.70;2.98;;;;;;;29.25;58.65;100748.62;1871087;77;21015;-59
2021/08/12 10:23:03;;;;;;;4.90;2.95;;;;;;;29.15;59.15;100749.36;1870497;76;21501;-59
2021/08/12 10:25:34;;;;;;;5.42;2.80;;;;;;;28.97;59.49;100754.21;1870998;77;21010;-59
2021/08/12 10:28:06;;;;;;;3.95;2.80;;;;;;;28.72;60.10;100755.73;1870804;76;21133;-59
2021/08/12 10:30:35;;;;;;;4.00;3.12;;;;;;;28.45;60.74;100744.33;1870896;77;21010;-59
2021/08/12 10:33:09;;;;;;;2.98;2.60;;;;;;;28.22;61.49;100752.88;1870806;77;21062;-59
2021/08/12 10:35:38;;;;;;;7.00;3.40;;;;;;;27.99;62.77;100755.52;1870999;77;21027;-59
2021/08/12 10:38:07;;;;;;;3.85;3.08;;;;;;;27.60;64.55;100771.12;1870936;77;21540;-59
2021/08/12 10:40:39;;;;;;;6.95;3.05;;;;;;;27.18;65.27;100774.80;1870940;77;21121;-59
2021/08/12 10:43:11;;;;;;;4.87;2.40;;;;;;;26.74;66.31;100788.91;1896414;75;21153;-59
2021/08/12 10:45:40;;;;;;;5.37;2.45;;;;;;;26.38;67.00;100805.78;1902052;75;21023;-59
2021/08/12 10:48:11;;;;;;;3.92;2.65;;;;;;;25.87;68.48;100822.31;1903292;75;21117;-58
2021/08/12 10:50:41;;;;;;;6.22;3.25;;;;;;;25.49;70.12;100840.53;1902355;75;21510;-60
2021/08/12 10:53:15;;;;;;;5.53;2.27;;;;;;;25.15;71.31;100850.11;1903171;75;21028;-59
2021/08/12 10:55:51;;;;;;;5.28;2.37;;;;;;;24.92;71.24;100856.44;1903391;75;21514;-59
2021/08/12 10:58:22;;;;;;;5.22;3.15;;;;;;;24.65;71.47;100860.81;1903508;75;21024;-59
2021/08/12 11:01:04;;;;;;;6.95;2.75;;;;;;;24.45;71.87;100848.41;1903278;75;21118;-59
2021/08/12 11:03:43;;;;;;;6.15;3.40;;;;;;;24.36;72.16;100836.67;1903277;75;21131;-59
2021/08/12 11:06:17;;;;;;;14.15;4.95;;;;;;;24.34;72.24;100828.41;1903317;75;21060;-59
2021/08/12 11:08:59;;;;;;;10.58;4.25;;;;;;;24.36;72.39;100822.38;1903287;75;21043;-59
2021/08/12 11:11:31;;;;;;;10.30;4.85;;;;;;;24.34;72.35;100809.58;1903395;75;21117;-59
2021/08/12 11:14:03;;;;;;;9.58;4.83;;;;;;;24.32;72.34;100811.06;1903439;75;21157;-59
2021/08/12 11:16:45;;;;;;;10.18;4.80;;;;;;;24.31;72.47;100828.70;1903265;75;21012;-59
2021/08/12 11:19:26;;;;;;;14.40;4.60;;;;;;;24.25;72.69;100831.00;1891694;75;21067;-59
2021/08/12 11:21:56;;;;;;;11.35;4.45;;;;;;;24.19;72.91;100826.19;1903204;75;21560;-59
2021/08/12 11:24:28;;;;;;;13.05;5.40;;;;;;;24.17;72.99;100821.95;1903203;75;21529;-59
2021/08/12 11:27:00;;;;;;;12.63;5.37;;;;;;;24.18;73.12;100827.67;1903243;75;21149;-59
2021/08/12 11:29:38;;;;;;;13.98;6.85;;;;;;;24.21;73.29;100834.95;1903264;75;21036;-59
2021/08/12 11:32:11;;;;;;;9.98;5.37;;;;;;;24.22;73.43;100829.10;1903239;75;21484;-59